createdAt,value
2018-05-09T00:02:19.922Z,4.03
2018-05-09T00:04:48.483Z,4.53
2018-05-09T00:07:17.805Z,6.57
2018-05-09T00:09:46.392Z,5.33
2018-05-09T00:12:14.950Z,5.17
2018-05-09T00:14:43.490Z,7.77
2018-05-09T00:17:12.053Z,5.90
2018-05-09T00:19:40.615Z,6.13
2018-05-09T00:22:09.176Z,5.03
2018-05-09T00:24:37.727Z,7.03
2018-05-09T00:27:06.289Z,7.70
2018-05-09T00:29:34.896Z,5.27
2018-05-09T00:32:03.446Z,7.10
2018-05-09T00:34:32.002Z,5.27
2018-05-09T00:37:00.551Z,7.47
2018-05-09T00:39:29.105Z,7.37
2018-05-09T00:41:57.671Z,6.27
2018-05-09T00:44:26.225Z,6.23
2018-05-09T00:46:54.801Z,5.93
2018-05-09T00:49:23.378Z,7.00
2018-05-09T00:51:51.922Z,5.73
2018-05-09T00:54:33.222Z,7.97
2018-05-09T00:57:01.854Z,7.70
2018-05-09T00:59:31.182Z,6.27
2018-05-09T01:01:59.732Z,5.60
2018-05-09T01:04:28.293Z,5.90
2018-05-09T01:06:56.911Z,7.47
2018-05-09T01:09:25.442Z,8.57
2018-05-09T01:11:54.010Z,7.10
2018-05-09T01:14:22.586Z,11.83
2018-05-09T01:16:51.130Z,6.03
2018-05-09T01:19:19.659Z,5.10
2018-05-09T01:21:48.192Z,7.07
2018-05-09T01:24:16.731Z,8.57
2018-05-09T01:26:45.314Z,9.40
2018-05-09T01:29:13.856Z,11.00
2018-05-09T01:31:43.187Z,5.33
2018-05-09T01:34:11.736Z,5.97
2018-05-09T01:36:40.275Z,7.20
2018-05-09T01:39:08.855Z,4.90
2018-05-09T01:41:37.483Z,5.20
2018-05-09T01:44:06.022Z,6.23
2018-05-09T01:46:34.553Z,6.87
2018-05-09T01:49:03.099Z,6.83
2018-05-09T01:51:31.667Z,7.10
2018-05-09T01:54:00.213Z,6.80
2018-05-09T01:56:29.525Z,8.30
2018-05-09T01:58:58.078Z,6.87
2018-05-09T02:01:26.625Z,5.57
2018-05-09T02:03:55.170Z,8.67
2018-05-09T02:06:23.723Z,6.03
2018-05-09T02:08:52.260Z,6.37
2018-05-09T02:11:20.801Z,6.37
2018-05-09T02:13:49.338Z,6.07
2018-05-09T02:16:17.891Z,9.57
2018-05-09T02:18:46.457Z,6.93
2018-05-09T02:21:15.791Z,6.40
2018-05-09T02:23:44.346Z,6.73
2018-05-09T02:26:13.686Z,6.20
2018-05-09T02:28:42.213Z,7.23
2018-05-09T02:31:10.853Z,5.87
2018-05-09T02:33:40.125Z,6.77
2018-05-09T02:36:09.447Z,4.63
2018-05-09T02:38:38.006Z,4.83
2018-05-09T02:41:07.330Z,8.10
2018-05-09T02:43:35.942Z,6.73
2018-05-09T02:46:04.462Z,5.77
2018-05-09T02:48:33.804Z,11.23
2018-05-09T02:51:24.591Z,6.40
2018-05-09T02:53:53.091Z,5.60
2018-05-09T02:56:21.635Z,5.17
2018-05-09T02:58:50.147Z,6.30
2018-05-09T03:01:18.672Z,8.43
2018-05-09T03:03:47.170Z,7.23
2018-05-09T03:06:15.676Z,7.60
2018-05-09T03:08:44.185Z,5.93
2018-05-09T03:11:12.690Z,7.13
2018-05-09T03:13:42.006Z,4.53
2018-05-09T03:16:10.560Z,5.80
2018-05-09T03:18:39.904Z,5.27
2018-05-09T03:21:08.481Z,8.67
2018-05-09T03:23:37.059Z,6.57
2018-05-09T03:26:05.614Z,4.97
2018-05-09T03:28:34.936Z,5.90
2018-05-09T03:31:05.920Z,5.13
2018-05-09T03:33:34.473Z,4.80
2018-05-09T03:36:03.063Z,5.70
2018-05-09T03:38:31.713Z,4.83
2018-05-09T03:41:01.037Z,7.77
2018-05-09T03:43:29.578Z,5.30
2018-05-09T03:45:58.106Z,5.87
2018-05-09T03:48:26.658Z,6.23
2018-05-09T03:50:55.984Z,6.90
2018-05-09T03:53:24.636Z,8.03
2018-05-09T03:55:53.159Z,6.30
2018-05-09T03:58:21.740Z,5.00
2018-05-09T04:00:50.286Z,8.43
2018-05-09T04:03:36.809Z,8.30
2018-05-09T04:06:23.197Z,10.23
2018-05-09T04:12:02.541Z,9.43
2018-05-09T04:14:31.046Z,5.73
2018-05-09T04:17:00.319Z,9.33
2018-05-09T04:19:28.857Z,8.37
2018-05-09T04:21:57.398Z,8.53
2018-05-09T04:24:25.942Z,7.10
2018-05-09T04:26:54.506Z,10.50
2018-05-09T04:29:23.042Z,7.83
2018-05-09T04:31:51.579Z,9.17
2018-05-09T04:34:20.888Z,7.03
2018-05-09T04:36:49.455Z,9.73
2018-05-09T04:39:18.002Z,9.00
2018-05-09T04:41:47.331Z,12.97
2018-05-09T04:44:15.889Z,9.03
2018-05-09T04:46:45.204Z,7.20
2018-05-09T04:49:14.504Z,7.30
2018-05-09T04:51:43.846Z,9.00
2018-05-09T04:54:13.278Z,7.80
2018-05-09T04:56:41.812Z,7.40
2018-05-09T04:59:10.370Z,11.07
2018-05-09T05:01:39.758Z,8.13
2018-05-09T05:04:09.123Z,12.97
2018-05-09T05:06:37.692Z,12.77
2018-05-09T05:09:09.652Z,10.07
2018-05-09T05:11:38.205Z,11.77
2018-05-09T05:14:06.776Z,13.10
2018-05-09T05:16:36.117Z,13.00
2018-05-09T05:19:04.691Z,12.57
2018-05-09T05:21:33.256Z,11.47
2018-05-09T05:24:01.816Z,8.90
2018-05-09T05:26:30.388Z,10.10
2018-05-09T05:28:58.977Z,9.47
2018-05-09T05:31:27.522Z,10.70
2018-05-09T05:33:56.066Z,7.70
2018-05-09T05:36:25.383Z,8.23
2018-05-09T05:38:53.952Z,8.47
2018-05-09T05:41:23.294Z,9.03
2018-05-09T05:43:51.843Z,7.63
2018-05-09T05:46:20.381Z,7.30
2018-05-09T05:48:48.941Z,7.43
2018-05-09T05:51:17.478Z,9.47
2018-05-09T05:53:46.000Z,7.27
2018-05-09T05:56:14.533Z,7.07
2018-05-09T05:58:43.071Z,10.47
2018-05-09T06:01:11.599Z,8.57
2018-05-09T06:03:40.146Z,14.30
2018-05-09T06:06:08.678Z,9.07
2018-05-09T06:08:37.982Z,7.53
2018-05-09T06:11:07.270Z,7.13
2018-05-09T06:13:35.851Z,6.90
2018-05-09T06:16:04.404Z,8.53
2018-05-09T06:18:32.938Z,8.73
2018-05-09T06:21:02.273Z,8.03
2018-05-09T06:23:30.818Z,5.87
2018-05-09T06:26:00.150Z,10.93
2018-05-09T06:28:28.697Z,8.50
2018-05-09T06:30:57.324Z,8.37
2018-05-09T06:33:25.810Z,7.43
2018-05-09T06:35:54.337Z,8.03
2018-05-09T06:38:22.882Z,9.27
2018-05-09T06:40:51.424Z,6.13
2018-05-09T06:43:20.766Z,7.17
2018-05-09T06:45:49.318Z,6.83
2018-05-09T06:48:17.870Z,6.00
2018-05-09T06:50:46.397Z,9.13
2018-05-09T06:53:14.938Z,8.23
2018-05-09T06:55:43.470Z,7.13
2018-05-09T06:58:12.023Z,9.50
2018-05-09T07:00:41.344Z,6.60
2018-05-09T07:03:09.892Z,6.90
2018-05-09T07:05:38.429Z,6.77
2018-05-09T07:08:06.966Z,7.30
2018-05-09T07:10:36.279Z,7.10
2018-05-09T07:13:05.583Z,5.70
2018-05-09T07:15:34.139Z,8.33
2018-05-09T07:18:02.683Z,6.83
2018-05-09T07:20:31.245Z,6.30
2018-05-09T07:22:59.824Z,6.80
2018-05-09T07:25:42.318Z,6.60
2018-05-09T07:28:16.315Z,8.27
2018-05-09T07:31:07.539Z,7.53
2018-05-09T07:33:37.048Z,8.40
2018-05-09T07:36:06.334Z,5.10
2018-05-09T07:38:34.850Z,7.83
2018-05-09T07:41:03.414Z,5.40
2018-05-09T07:43:32.747Z,8.07
2018-05-09T07:46:01.299Z,6.13
2018-05-09T07:48:30.621Z,6.80
2018-05-09T07:50:59.183Z,7.13
2018-05-09T07:53:27.716Z,8.07
2018-05-09T07:55:56.254Z,8.50
2018-05-09T07:58:25.590Z,7.13
2018-05-09T08:00:54.138Z,7.83
2018-05-09T08:03:23.476Z,7.87
2018-05-09T08:05:52.826Z,7.47
2018-05-09T08:08:21.348Z,6.47
2018-05-09T08:10:49.890Z,6.33
2018-05-09T08:13:19.200Z,11.87
2018-05-09T08:15:48.519Z,6.63
2018-05-09T08:18:17.058Z,7.97
2018-05-09T08:20:45.562Z,7.53
2018-05-09T08:23:14.107Z,6.03
2018-05-09T08:25:42.661Z,7.20
2018-05-09T08:28:11.497Z,6.50
2018-05-09T08:30:40.162Z,6.37
2018-05-09T08:33:08.695Z,8.97
2018-05-09T08:35:38.010Z,7.80
2018-05-09T08:38:06.577Z,8.35
2018-05-09T08:40:35.890Z,7.70
2018-05-09T08:43:04.455Z,8.82
2018-05-09T08:45:33.038Z,8.35
2018-05-09T08:48:02.350Z,7.00
2018-05-09T08:50:30.909Z,8.85
2018-05-09T08:52:59.434Z,6.68
2018-05-09T08:55:27.985Z,5.85
2018-05-09T08:57:56.562Z,7.65
2018-05-09T09:00:25.118Z,11.55
2018-05-09T09:02:53.681Z,6.00
2018-05-09T09:05:22.209Z,10.63
2018-05-09T09:07:50.792Z,7.22
2018-05-09T09:10:19.353Z,7.68
2018-05-09T09:12:47.877Z,6.65
2018-05-09T09:15:17.267Z,6.53
2018-05-09T09:17:45.758Z,9.63
2018-05-09T09:20:15.068Z,7.68
2018-05-09T09:22:44.386Z,7.12
2018-05-09T09:25:12.937Z,6.22
2018-05-09T09:27:41.490Z,7.47
2018-05-09T09:30:10.035Z,9.40
2018-05-09T09:32:38.581Z,6.10
2018-05-09T09:35:07.142Z,6.32
2018-05-09T09:37:35.692Z,11.85
2018-05-09T09:40:04.298Z,8.73
2018-05-09T09:42:32.851Z,7.28
2018-05-09T09:45:01.392Z,8.20
2018-05-09T09:47:29.941Z,6.07
2018-05-09T09:49:58.499Z,6.37
2018-05-09T09:52:27.048Z,8.45
2018-05-09T09:54:55.590Z,10.32
2018-05-09T09:57:24.147Z,5.85
2018-05-09T09:59:52.694Z,8.00
2018-05-09T10:02:21.385Z,7.82
2018-05-09T10:04:49.931Z,6.10
2018-05-09T10:07:18.511Z,8.70
2018-05-09T10:09:47.070Z,6.70
2018-05-09T10:12:15.609Z,6.85
2018-05-09T10:14:44.202Z,9.00
2018-05-09T10:17:12.798Z,8.48
2018-05-09T10:19:42.115Z,6.28
2018-05-09T10:22:10.657Z,8.57
2018-05-09T10:24:39.201Z,5.85
2018-05-09T10:27:07.807Z,6.25
2018-05-09T10:29:36.363Z,10.52
2018-05-09T10:32:04.920Z,6.72
2018-05-09T10:34:34.243Z,6.00
2018-05-09T10:37:02.783Z,6.22
2018-05-09T10:39:31.428Z,7.55
2018-05-09T10:41:59.978Z,7.47
2018-05-09T10:44:28.537Z,6.37
2018-05-09T10:46:57.083Z,8.20
2018-05-09T10:49:25.629Z,7.70
2018-05-09T10:51:54.191Z,9.70
2018-05-09T10:54:22.731Z,5.87
2018-05-09T10:56:51.264Z,7.07
2018-05-09T10:59:20.594Z,6.37
2018-05-09T11:01:49.135Z,5.57
2018-05-09T11:04:17.671Z,5.60
2018-05-09T11:06:46.208Z,6.43
2018-05-09T11:09:15.527Z,6.05
2018-05-09T11:11:44.807Z,6.45
2018-05-09T11:14:13.362Z,10.10
2018-05-09T11:16:48.125Z,8.25
2018-05-09T11:19:22.291Z,6.00
2018-05-09T11:21:56.278Z,8.13
2018-05-09T11:24:30.251Z,7.18
2018-05-09T11:27:04.333Z,6.37
2018-05-09T11:29:38.490Z,5.82
2018-05-09T11:32:12.528Z,5.72
2018-05-09T11:34:46.625Z,8.02
2018-05-09T11:37:20.794Z,5.25
2018-05-09T11:39:54.870Z,6.70
2018-05-09T11:42:29.664Z,7.40
2018-05-09T11:45:04.524Z,7.65
2018-05-09T11:47:38.632Z,8.02
2018-05-09T11:50:12.731Z,9.10
2018-05-09T11:52:46.769Z,7.07
2018-05-09T11:55:20.851Z,6.43
2018-05-09T11:57:55.513Z,9.35
2018-05-09T12:00:29.622Z,10.88
2018-05-09T12:03:03.715Z,8.48
2018-05-09T12:05:38.548Z,6.32
2018-05-09T12:08:12.659Z,6.18
2018-05-09T12:10:46.726Z,9.85
2018-05-09T12:13:20.812Z,8.93
2018-05-09T12:15:54.828Z,8.45
2018-05-09T12:18:28.850Z,8.80
2018-05-09T12:21:03.642Z,7.72
2018-05-09T12:23:37.738Z,8.52
2018-05-09T12:26:12.718Z,7.90
2018-05-09T12:28:46.706Z,6.78
2018-05-09T12:31:20.751Z,8.20
2018-05-09T12:33:55.503Z,8.93
2018-05-09T12:36:30.411Z,13.73
2018-05-09T12:39:04.487Z,6.20
2018-05-09T12:41:38.422Z,10.18
2018-05-09T12:44:12.488Z,8.02
2018-05-09T12:46:46.532Z,7.37
2018-05-09T12:49:20.515Z,5.20
2018-05-09T12:51:54.622Z,7.43
2018-05-09T12:54:28.683Z,7.07
2018-05-09T12:57:02.563Z,4.47
2018-05-09T12:59:36.666Z,5.22
2018-05-09T13:02:11.562Z,7.35
2018-05-09T13:04:45.710Z,8.00
2018-05-09T13:07:20.629Z,8.95
2018-05-09T13:09:54.618Z,7.60
2018-05-09T13:12:29.414Z,11.77
2018-05-09T13:15:03.327Z,6.90
2018-05-09T13:17:37.419Z,5.87
2018-05-09T13:20:11.579Z,7.40
2018-05-09T13:22:45.663Z,8.13
2018-05-09T13:25:19.645Z,5.57
2018-05-09T13:27:53.674Z,5.25
2018-05-09T13:30:27.771Z,8.43
2018-05-09T13:33:01.849Z,6.72
2018-05-09T13:35:37.759Z,8.55
2018-05-09T13:38:11.695Z,5.70
2018-05-09T13:40:46.370Z,7.40
2018-05-09T13:43:20.289Z,6.93
2018-05-09T13:45:54.418Z,7.45
2018-05-09T13:48:28.399Z,6.57
2018-05-09T13:51:02.438Z,7.82
2018-05-09T13:53:37.259Z,6.20
2018-05-09T13:56:11.971Z,4.62
2018-05-09T13:58:46.815Z,7.45
2018-05-09T14:01:20.950Z,5.68
2018-05-09T14:03:56.054Z,4.82
2018-05-09T14:06:30.196Z,4.25
2018-05-09T14:09:04.182Z,6.40
2018-05-09T14:11:38.294Z,6.90
2018-05-09T14:14:12.451Z,7.80
2018-05-09T14:16:48.114Z,6.40
2018-05-09T14:19:24.120Z,10.13
2018-05-09T14:22:03.165Z,8.07
2018-05-09T14:24:39.803Z,7.82
2018-05-09T14:27:14.606Z,7.72
2018-05-09T14:29:50.663Z,5.60
2018-05-09T14:32:25.664Z,5.35
2018-05-09T14:35:05.289Z,5.57
2018-05-09T14:37:39.829Z,4.57
2018-05-09T14:40:14.191Z,6.37
2018-05-09T14:42:49.638Z,4.50
2018-05-09T14:45:23.779Z,5.72
2018-05-09T14:47:58.258Z,6.37
2018-05-09T14:50:36.193Z,4.12
2018-05-09T14:53:10.330Z,5.97
2018-05-09T14:55:44.869Z,3.65
2018-05-09T14:58:19.260Z,4.57
2018-05-09T15:00:54.227Z,4.10
2018-05-09T15:03:28.466Z,5.35
2018-05-09T15:06:02.550Z,5.72
2018-05-09T15:08:36.678Z,4.37
2018-05-09T15:11:11.080Z,3.60
2018-05-09T15:13:45.245Z,3.87
2018-05-09T15:16:19.392Z,7.10
2018-05-09T15:18:53.761Z,4.07
2018-05-09T15:21:27.768Z,8.30
2018-05-09T15:24:01.869Z,4.82
2018-05-09T15:26:35.884Z,7.22
2018-05-09T15:29:10.129Z,7.57
2018-05-09T15:31:45.014Z,6.62
2018-05-09T15:34:19.168Z,5.05
2018-05-09T15:36:53.398Z,4.95
2018-05-09T15:39:27.458Z,6.47
2018-05-09T15:42:01.593Z,4.72
2018-05-09T15:44:35.674Z,3.80
2018-05-09T15:47:10.518Z,6.82
2018-05-09T15:49:47.638Z,7.07
2018-05-09T15:52:21.565Z,6.30
2018-05-09T15:54:55.500Z,4.07
2018-05-09T15:57:30.203Z,4.30
2018-05-09T16:00:04.994Z,5.28
2018-05-09T16:02:39.098Z,5.37
2018-05-09T16:05:13.205Z,6.30
2018-05-09T16:07:47.283Z,4.07
2018-05-09T16:10:21.339Z,6.35
2018-05-09T16:12:55.489Z,5.45
2018-05-09T16:15:29.566Z,3.72
2018-05-09T16:18:03.678Z,6.30
2018-05-09T16:20:37.822Z,5.57
2018-05-09T16:23:11.810Z,4.47
2018-05-09T16:25:45.887Z,4.90
2018-05-09T16:28:20.009Z,7.28
2018-05-09T16:30:54.050Z,5.20
2018-05-09T16:33:28.014Z,4.97
2018-05-09T16:36:03.356Z,6.87
2018-05-09T16:38:37.192Z,8.70
2018-05-09T16:41:11.167Z,6.37
2018-05-09T16:43:45.168Z,4.85
2018-05-09T16:46:19.227Z,5.82
2018-05-09T16:48:53.350Z,6.72
2018-05-09T16:51:28.179Z,4.45
2018-05-09T16:54:02.237Z,7.32
2018-05-09T16:56:36.338Z,5.07
2018-05-09T16:59:11.280Z,4.50
2018-05-09T17:01:45.365Z,5.72
2018-05-09T17:04:19.365Z,3.90
2018-05-09T17:06:53.413Z,4.70
2018-05-09T17:09:27.487Z,4.97
2018-05-09T17:12:01.537Z,5.25
2018-05-09T17:14:35.632Z,5.22
2018-05-09T17:17:09.671Z,4.97
2018-05-09T17:19:45.089Z,4.40
2018-05-09T17:22:33.982Z,5.93
2018-05-09T17:25:08.038Z,6.35
2018-05-09T17:27:42.111Z,5.22
2018-05-09T17:30:16.245Z,5.78
2018-05-09T17:32:50.563Z,5.55
2018-05-09T17:35:24.601Z,4.45
2018-05-09T17:37:58.669Z,6.55
2018-05-09T17:40:32.801Z,5.25
2018-05-09T17:43:06.777Z,7.35
2018-05-09T17:45:40.928Z,5.15
2018-05-09T17:48:15.170Z,5.72
2018-05-09T17:50:49.436Z,6.40
2018-05-09T17:53:23.553Z,5.93
2018-05-09T17:55:57.706Z,4.95
2018-05-09T17:58:32.935Z,5.10
2018-05-09T18:01:06.838Z,7.65
2018-05-09T18:03:41.714Z,14.23
2018-05-09T18:06:15.704Z,7.40
2018-05-09T18:08:49.771Z,6.18
2018-05-09T18:11:23.891Z,6.22
2018-05-09T18:13:57.983Z,10.23
2018-05-09T18:16:32.018Z,8.32
2018-05-09T18:19:06.129Z,7.55
2018-05-09T18:21:40.251Z,4.43
2018-05-09T18:24:14.362Z,8.77
2018-05-09T18:26:49.250Z,5.37
2018-05-09T18:29:23.344Z,9.38
2018-05-09T18:31:57.413Z,5.53
2018-05-09T18:34:32.258Z,5.18
2018-05-09T18:37:07.110Z,5.95
2018-05-09T18:39:41.269Z,6.93
2018-05-09T18:42:15.302Z,7.12
2018-05-09T18:44:49.337Z,8.13
2018-05-09T18:47:23.446Z,8.13
2018-05-09T18:49:57.545Z,9.68
2018-05-09T18:52:32.503Z,23.00
2018-05-09T18:55:07.258Z,26.60
2018-05-09T18:57:41.534Z,24.48
2018-05-09T19:00:16.500Z,26.67
2018-05-09T19:02:50.611Z,24.08
2018-05-09T19:05:24.615Z,18.48
2018-05-09T19:07:59.527Z,11.15
2018-05-09T19:10:33.666Z,10.25
2018-05-09T19:13:07.754Z,13.23
2018-05-09T19:15:41.841Z,8.80
2018-05-09T19:18:15.999Z,7.45
2018-05-09T19:20:50.186Z,14.93
2018-05-09T19:23:24.287Z,10.80
2018-05-09T19:25:58.227Z,7.87
2018-05-09T19:28:32.349Z,8.70
2018-05-09T19:31:07.099Z,7.82
2018-05-09T19:33:41.316Z,7.78
2018-05-09T19:36:15.426Z,9.63
2018-05-09T19:38:49.485Z,9.07
2018-05-09T19:41:23.570Z,9.32
2018-05-09T19:43:57.519Z,9.65
2018-05-09T19:46:31.510Z,9.65
2018-05-09T19:49:05.485Z,8.02
2018-05-09T19:51:39.561Z,8.70
2018-05-09T19:54:13.676Z,7.43
2018-05-09T19:56:47.875Z,10.23
2018-05-09T19:59:22.003Z,10.73
2018-05-09T20:01:56.047Z,9.82
2018-05-09T20:04:31.015Z,8.05
2018-05-09T20:07:05.867Z,8.32
2018-05-09T20:09:39.801Z,8.60
2018-05-09T20:12:13.912Z,8.63
2018-05-09T20:14:47.970Z,8.30
2018-05-09T20:17:22.817Z,10.65
2018-05-09T20:19:56.953Z,10.13
2018-05-09T20:22:31.104Z,9.38
2018-05-09T20:25:05.239Z,13.48
2018-05-09T20:27:40.013Z,8.95
2018-05-09T20:30:14.048Z,9.05
2018-05-09T20:32:48.133Z,8.75
2018-05-09T20:35:22.187Z,9.73
2018-05-09T20:37:57.330Z,10.98
2018-05-09T20:40:31.325Z,9.65
2018-05-09T20:43:06.240Z,8.50
2018-05-09T20:45:40.964Z,8.70
2018-05-09T20:48:15.089Z,9.82
2018-05-09T20:50:49.470Z,11.27
2018-05-09T20:53:23.494Z,10.25
2018-05-09T20:55:57.646Z,10.10
2018-05-09T20:58:32.498Z,8.68
2018-05-09T21:01:25.697Z,10.75
2018-05-09T21:03:59.750Z,13.50
2018-05-09T21:06:33.779Z,12.85
2018-05-09T21:09:07.880Z,10.38
2018-05-09T21:11:53.959Z,13.62
2018-05-09T21:14:28.137Z,11.25
2018-05-09T21:17:03.238Z,8.98
2018-05-09T21:19:37.523Z,9.32
2018-05-09T21:22:11.392Z,4.68
2018-05-09T21:24:45.407Z,4.85
2018-05-09T21:27:19.447Z,5.28
2018-05-09T21:29:53.515Z,7.87
2018-05-09T21:32:27.595Z,5.93
2018-05-09T21:35:01.606Z,4.37
2018-05-09T21:37:36.436Z,5.87
2018-05-09T21:40:10.543Z,5.75
2018-05-09T21:42:44.638Z,8.02
2018-05-09T21:45:18.573Z,7.05
2018-05-09T21:47:52.642Z,5.72
2018-05-09T21:50:26.919Z,6.28
2018-05-09T21:53:00.986Z,6.65
2018-05-09T21:55:35.007Z,6.37
2018-05-09T21:58:09.094Z,8.18
2018-05-09T22:00:43.954Z,5.50
2018-05-09T22:03:17.991Z,5.78
2018-05-09T22:05:52.054Z,4.43
2018-05-09T22:08:26.054Z,6.05
2018-05-09T22:11:00.178Z,5.12
2018-05-09T22:13:34.231Z,3.75
2018-05-09T22:16:08.235Z,3.65
2018-05-09T22:18:42.299Z,5.62
2018-05-09T22:21:16.470Z,3.83
2018-05-09T22:23:50.442Z,4.87
2018-05-09T22:26:24.544Z,4.68
2018-05-09T22:28:58.418Z,5.12
2018-05-09T22:31:32.512Z,3.25
2018-05-09T22:34:06.585Z,4.00
2018-05-09T22:36:40.709Z,3.20
2018-05-09T22:39:14.846Z,4.30
2018-05-09T22:41:49.005Z,3.50
2018-05-09T22:44:23.099Z,3.00
2018-05-09T22:46:57.190Z,7.30
2018-05-09T22:49:32.000Z,3.37
2018-05-09T22:52:06.075Z,4.45
2018-05-09T22:54:34.619Z,6.18
2018-05-09T22:57:03.184Z,4.07
2018-05-09T22:59:32.474Z,4.18
2018-05-09T23:02:01.758Z,5.22
2018-05-09T23:04:30.303Z,6.35
2018-05-09T23:06:59.599Z,7.87
2018-05-09T23:09:28.165Z,5.35
2018-05-09T23:11:56.718Z,4.18
2018-05-09T23:14:26.041Z,4.32
2018-05-09T23:16:54.590Z,3.78
2018-05-09T23:19:23.136Z,4.00
2018-05-09T23:21:52.469Z,6.97
2018-05-09T23:24:21.021Z,4.82
2018-05-09T23:26:49.569Z,4.93
2018-05-09T23:29:18.145Z,4.55
2018-05-09T23:31:47.458Z,4.85
2018-05-09T23:34:15.978Z,4.70
2018-05-09T23:36:44.536Z,6.53
2018-05-09T23:39:13.090Z,5.75
2018-05-09T23:41:42.399Z,5.90
2018-05-09T23:44:11.713Z,4.80
2018-05-09T23:46:40.275Z,5.35
2018-05-09T23:49:13.630Z,5.53
2018-05-09T23:51:42.182Z,4.97
2018-05-09T23:54:10.723Z,5.93
2018-05-09T23:56:39.273Z,5.65
2018-05-09T23:59:07.835Z,7.78
